Ballengee, West Virginia
Current Conditions -  °F | °C
As of 9:51 PM on Friday 24 Oct 2014 (Local Time) from KBKW Reporting Station
Clear Clear  
Wind Chill: 41°   Ceiling: Unl
Heat Index: 41°   Visibility: 10mi
Dew Point: 36°   Wind: 3mph
Humidity: 82%   Direction: 190°S
Pressure: 30.08"   Gusts: NA
Location:  37.62°N, 80.74°W
Report Text: KBKW 250151Z AUTO 19003KT 10SM CLR 05/02 A3008 RMK AO2 SLP195 T00500022 TSNO
Loading
Personal Weather Stations






























Interactive Weather Map
Tropical Storm Tracking
New forecast layout! Learn more

10-Day Weather Forecast

Advertisements
Track Severe Weather on mobile